sensor_id;sensor_type;location;lat;lon;timestamp;P1;durP1;ratioP1;P2;durP2;ratioP2
9675;SDS011;4876;42.656;23.292;2023-10-09T00:01:42;5.70;;;3.17;;
9675;SDS011;4876;42.656;23.292;2023-10-09T00:04:11;9.33;;;2.40;;
9675;SDS011;4876;42.656;23.292;2023-10-09T00:06:39;11.13;;;2.87;;
9675;SDS011;4876;42.656;23.292;2023-10-09T00:09:08;6.90;;;2.83;;
9675;SDS011;4876;42.656;23.292;2023-10-09T00:11:56;11.93;;;2.57;;
9675;SDS011;4876;42.656;23.292;2023-10-09T00:14:23;7.30;;;2.73;;
9675;SDS011;4876;42.656;23.292;2023-10-09T00:16:50;8.70;;;3.27;;
9675;SDS011;4876;42.656;23.292;2023-10-09T00:19:21;9.77;;;2.70;;
9675;SDS011;4876;42.656;23.292;2023-10-09T00:21:55;10.87;;;2.77;;
9675;SDS011;4876;42.656;23.292;2023-10-09T00:24:25;7.67;;;2.30;;
9675;SDS011;4876;42.656;23.292;2023-10-09T00:26:53;8.70;;;2.40;;
9675;SDS011;4876;42.656;23.292;2023-10-09T00:29:27;12.13;;;3.10;;
9675;SDS011;4876;42.656;23.292;2023-10-09T00:32:00;5.67;;;2.43;;
9675;SDS011;4876;42.656;23.292;2023-10-09T00:34:38;6.07;;;2.13;;
9675;SDS011;4876;42.656;23.292;2023-10-09T00:37:06;6.80;;;2.33;;
9675;SDS011;4876;42.656;23.292;2023-10-09T00:39:37;10.27;;;2.60;;
9675;SDS011;4876;42.656;23.292;2023-10-09T00:42:09;8.87;;;2.43;;
9675;SDS011;4876;42.656;23.292;2023-10-09T00:44:40;8.13;;;2.60;;
9675;SDS011;4876;42.656;23.292;2023-10-09T00:47:07;6.20;;;2.37;;
9675;SDS011;4876;42.656;23.292;2023-10-09T00:49:51;7.07;;;2.30;;
9675;SDS011;4876;42.656;23.292;2023-10-09T00:52:26;9.37;;;2.23;;
9675;SDS011;4876;42.656;23.292;2023-10-09T00:55:06;4.30;;;2.33;;
9675;SDS011;4876;42.656;23.292;2023-10-09T00:57:39;8.73;;;2.30;;
9675;SDS011;4876;42.656;23.292;2023-10-09T01:00:13;6.23;;;2.13;;
9675;SDS011;4876;42.656;23.292;2023-10-09T01:02:57;8.50;;;2.70;;
9675;SDS011;4876;42.656;23.292;2023-10-09T01:05:36;6.93;;;1.80;;
9675;SDS011;4876;42.656;23.292;2023-10-09T01:08:12;7.67;;;2.50;;
9675;SDS011;4876;42.656;23.292;2023-10-09T01:10:51;10.50;;;2.40;;
9675;SDS011;4876;42.656;23.292;2023-10-09T01:13:22;8.50;;;2.50;;
9675;SDS011;4876;42.656;23.292;2023-10-09T01:16:04;8.37;;;2.17;;
9675;SDS011;4876;42.656;23.292;2023-10-09T01:18:33;8.53;;;2.00;;
9675;SDS011;4876;42.656;23.292;2023-10-09T01:21:06;6.20;;;2.00;;
9675;SDS011;4876;42.656;23.292;2023-10-09T01:23:34;10.63;;;2.10;;
9675;SDS011;4876;42.656;23.292;2023-10-09T01:26:08;5.70;;;1.83;;
9675;SDS011;4876;42.656;23.292;2023-10-09T01:28:35;4.10;;;1.80;;
9675;SDS011;4876;42.656;23.292;2023-10-09T01:31:03;2.60;;;1.70;;
9675;SDS011;4876;42.656;23.292;2023-10-09T01:33:31;5.80;;;1.87;;
9675;SDS011;4876;42.656;23.292;2023-10-09T01:36:01;7.70;;;2.20;;
9675;SDS011;4876;42.656;23.292;2023-10-09T01:38:29;5.90;;;1.70;;
9675;SDS011;4876;42.656;23.292;2023-10-09T01:41:08;8.77;;;2.10;;
9675;SDS011;4876;42.656;23.292;2023-10-09T01:43:41;2.40;;;1.37;;
9675;SDS011;4876;42.656;23.292;2023-10-09T01:46:10;7.87;;;1.83;;
9675;SDS011;4876;42.656;23.292;2023-10-09T01:48:41;4.87;;;1.83;;
9675;SDS011;4876;42.656;23.292;2023-10-09T01:51:13;3.87;;;1.83;;
9675;SDS011;4876;42.656;23.292;2023-10-09T01:53:42;5.97;;;2.10;;
9675;SDS011;4876;42.656;23.292;2023-10-09T01:56:11;4.47;;;1.77;;
9675;SDS011;4876;42.656;23.292;2023-10-09T01:58:41;3.13;;;1.80;;
9675;SDS011;4876;42.656;23.292;2023-10-09T02:01:13;4.23;;;2.10;;
9675;SDS011;4876;42.656;23.292;2023-10-09T02:03:41;3.30;;;2.10;;
9675;SDS011;4876;42.656;23.292;2023-10-09T02:06:08;4.93;;;2.00;;
9675;SDS011;4876;42.656;23.292;2023-10-09T02:08:52;6.77;;;2.20;;
9675;SDS011;4876;42.656;23.292;2023-10-09T02:11:21;8.37;;;2.50;;
9675;SDS011;4876;42.656;23.292;2023-10-09T02:14:02;8.77;;;2.40;;
9675;SDS011;4876;42.656;23.292;2023-10-09T02:16:41;5.80;;;2.03;;
9675;SDS011;4876;42.656;23.292;2023-10-09T02:19:08;6.17;;;2.27;;
9675;SDS011;4876;42.656;23.292;2023-10-09T02:21:54;6.17;;;1.90;;
9675;SDS011;4876;42.656;23.292;2023-10-09T02:24:24;12.13;;;2.10;;
9675;SDS011;4876;42.656;23.292;2023-10-09T02:27:16;11.77;;;2.30;;
9675;SDS011;4876;42.656;23.292;2023-10-09T02:30:05;3.87;;;1.90;;
9675;SDS011;4876;42.656;23.292;2023-10-09T02:32:42;5.00;;;2.30;;
9675;SDS011;4876;42.656;23.292;2023-10-09T02:35:14;6.57;;;2.00;;
9675;SDS011;4876;42.656;23.292;2023-10-09T02:37:46;2.93;;;1.60;;
9675;SDS011;4876;42.656;23.292;2023-10-09T02:40:13;13.03;;;2.30;;
9675;SDS011;4876;42.656;23.292;2023-10-09T02:42:51;2.00;;;1.80;;
9675;SDS011;4876;42.656;23.292;2023-10-09T02:45:18;5.70;;;2.00;;
9675;SDS011;4876;42.656;23.292;2023-10-09T02:47:45;4.83;;;1.50;;
9675;SDS011;4876;42.656;23.292;2023-10-09T02:50:14;2.40;;;1.67;;
9675;SDS011;4876;42.656;23.292;2023-10-09T02:52:46;4.87;;;1.83;;
9675;SDS011;4876;42.656;23.292;2023-10-09T02:57:53;3.87;;;1.70;;
9675;SDS011;4876;42.656;23.292;2023-10-09T03:00:30;7.07;;;1.67;;
9675;SDS011;4876;42.656;23.292;2023-10-09T03:03:01;5.97;;;2.00;;
9675;SDS011;4876;42.656;23.292;2023-10-09T03:05:31;8.77;;;2.03;;
9675;SDS011;4876;42.656;23.292;2023-10-09T03:07:58;4.67;;;1.53;;
9675;SDS011;4876;42.656;23.292;2023-10-09T03:10:27;2.67;;;1.70;;
9675;SDS011;4876;42.656;23.292;2023-10-09T03:12:55;2.97;;;1.70;;
9675;SDS011;4876;42.656;23.292;2023-10-09T03:15:26;3.33;;;1.60;;
9675;SDS011;4876;42.656;23.292;2023-10-09T03:17:54;4.20;;;1.70;;
9675;SDS011;4876;42.656;23.292;2023-10-09T03:20:21;7.60;;;1.83;;
9675;SDS011;4876;42.656;23.292;2023-10-09T03:22:48;4.53;;;1.90;;
9675;SDS011;4876;42.656;23.292;2023-10-09T03:25:15;5.93;;;1.70;;
9675;SDS011;4876;42.656;23.292;2023-10-09T03:27:43;2.90;;;1.83;;
9675;SDS011;4876;42.656;23.292;2023-10-09T03:30:13;4.00;;;1.73;;
9675;SDS011;4876;42.656;23.292;2023-10-09T03:32:47;5.37;;;1.90;;
9675;SDS011;4876;42.656;23.292;2023-10-09T03:35:16;6.73;;;1.90;;
9675;SDS011;4876;42.656;23.292;2023-10-09T03:37:50;5.60;;;1.77;;
9675;SDS011;4876;42.656;23.292;2023-10-09T03:40:22;3.10;;;1.70;;
9675;SDS011;4876;42.656;23.292;2023-10-09T03:42:50;10.57;;;1.70;;
9675;SDS011;4876;42.656;23.292;2023-10-09T03:45:18;2.93;;;1.60;;
9675;SDS011;4876;42.656;23.292;2023-10-09T03:47:55;4.00;;;1.50;;
9675;SDS011;4876;42.656;23.292;2023-10-09T03:50:27;6.63;;;1.50;;
9675;SDS011;4876;42.656;23.292;2023-10-09T03:53:03;2.40;;;1.60;;
9675;SDS011;4876;42.656;23.292;2023-10-09T03:55:34;2.53;;;1.40;;
9675;SDS011;4876;42.656;23.292;2023-10-09T03:58:03;5.60;;;1.30;;
9675;SDS011;4876;42.656;23.292;2023-10-09T04:00:33;7.60;;;1.80;;
9675;SDS011;4876;42.656;23.292;2023-10-09T04:03:10;2.17;;;1.10;;
9675;SDS011;4876;42.656;23.292;2023-10-09T04:05:39;2.67;;;1.40;;
9675;SDS011;4876;42.656;23.292;2023-10-09T04:08:08;3.53;;;1.57;;
9675;SDS011;4876;42.656;23.292;2023-10-09T04:10:44;3.20;;;1.37;;
9675;SDS011;4876;42.656;23.292;2023-10-09T04:13:26;4.43;;;1.30;;
9675;SDS011;4876;42.656;23.292;2023-10-09T04:15:59;5.30;;;1.73;;
9675;SDS011;4876;42.656;23.292;2023-10-09T04:18:34;2.77;;;1.50;;
9675;SDS011;4876;42.656;23.292;2023-10-09T04:21:04;6.00;;;1.63;;
9675;SDS011;4876;42.656;23.292;2023-10-09T04:23:44;5.30;;;1.33;;
9675;SDS011;4876;42.656;23.292;2023-10-09T04:26:35;4.10;;;1.67;;
9675;SDS011;4876;42.656;23.292;2023-10-09T04:29:02;3.13;;;1.37;;
9675;SDS011;4876;42.656;23.292;2023-10-09T04:31:31;6.27;;;1.37;;
9675;SDS011;4876;42.656;23.292;2023-10-09T04:34:02;1.70;;;1.40;;
9675;SDS011;4876;42.656;23.292;2023-10-09T04:36:46;5.80;;;1.87;;
9675;SDS011;4876;42.656;23.292;2023-10-09T04:39:14;4.97;;;1.40;;
9675;SDS011;4876;42.656;23.292;2023-10-09T04:42:00;5.83;;;1.30;;
9675;SDS011;4876;42.656;23.292;2023-10-09T04:45:00;7.27;;;1.57;;
9675;SDS011;4876;42.656;23.292;2023-10-09T04:47:42;2.90;;;1.30;;
9675;SDS011;4876;42.656;23.292;2023-10-09T04:50:23;3.10;;;1.30;;
9675;SDS011;4876;42.656;23.292;2023-10-09T04:53:07;1.50;;;1.27;;
9675;SDS011;4876;42.656;23.292;2023-10-09T04:55:48;8.23;;;1.30;;
9675;SDS011;4876;42.656;23.292;2023-10-09T04:58:20;2.40;;;1.30;;
9675;SDS011;4876;42.656;23.292;2023-10-09T05:00:51;2.10;;;1.40;;
9675;SDS011;4876;42.656;23.292;2023-10-09T05:03:39;5.73;;;1.60;;
9675;SDS011;4876;42.656;23.292;2023-10-09T05:06:10;3.17;;;1.50;;
9675;SDS011;4876;42.656;23.292;2023-10-09T05:08:58;1.60;;;1.20;;
9675;SDS011;4876;42.656;23.292;2023-10-09T05:11:33;4.83;;;1.10;;
9675;SDS011;4876;42.656;23.292;2023-10-09T05:14:18;4.93;;;1.40;;
9675;SDS011;4876;42.656;23.292;2023-10-09T05:16:52;1.63;;;1.23;;
9675;SDS011;4876;42.656;23.292;2023-10-09T05:19:27;4.70;;;1.30;;
9675;SDS011;4876;42.656;23.292;2023-10-09T05:22:19;4.07;;;1.40;;
9675;SDS011;4876;42.656;23.292;2023-10-09T05:25:01;3.27;;;1.53;;
9675;SDS011;4876;42.656;23.292;2023-10-09T05:27:39;3.07;;;1.30;;
9675;SDS011;4876;42.656;23.292;2023-10-09T05:30:15;3.27;;;1.40;;
9675;SDS011;4876;42.656;23.292;2023-10-09T05:32:54;2.87;;;1.20;;
9675;SDS011;4876;42.656;23.292;2023-10-09T05:35:26;8.17;;;1.50;;
9675;SDS011;4876;42.656;23.292;2023-10-09T05:38:27;4.27;;;1.50;;
9675;SDS011;4876;42.656;23.292;2023-10-09T05:40:55;1.73;;;1.33;;
9675;SDS011;4876;42.656;23.292;2023-10-09T05:43:42;3.47;;;1.30;;
9675;SDS011;4876;42.656;23.292;2023-10-09T05:46:26;7.50;;;1.70;;
9675;SDS011;4876;42.656;23.292;2023-10-09T05:49:00;4.87;;;1.50;;
9675;SDS011;4876;42.656;23.292;2023-10-09T05:51:36;1.40;;;1.30;;
9675;SDS011;4876;42.656;23.292;2023-10-09T05:54:08;4.80;;;1.97;;
9675;SDS011;4876;42.656;23.292;2023-10-09T05:56:49;4.23;;;1.53;;
9675;SDS011;4876;42.656;23.292;2023-10-09T05:59:34;3.00;;;1.50;;
9675;SDS011;4876;42.656;23.292;2023-10-09T06:02:18;7.40;;;1.40;;
9675;SDS011;4876;42.656;23.292;2023-10-09T06:05:07;6.60;;;1.73;;
9675;SDS011;4876;42.656;23.292;2023-10-09T06:08:07;4.27;;;1.40;;
9675;SDS011;4876;42.656;23.292;2023-10-09T06:10:38;4.97;;;1.70;;
9675;SDS011;4876;42.656;23.292;2023-10-09T06:13:07;4.70;;;1.40;;
9675;SDS011;4876;42.656;23.292;2023-10-09T06:15:56;1.70;;;1.53;;
9675;SDS011;4876;42.656;23.292;2023-10-09T06:18:40;2.23;;;1.00;;
9675;SDS011;4876;42.656;23.292;2023-10-09T06:21:09;5.03;;;1.40;;
9675;SDS011;4876;42.656;23.292;2023-10-09T06:23:55;1.67;;;1.30;;
9675;SDS011;4876;42.656;23.292;2023-10-09T06:26:40;1.80;;;1.10;;
9675;SDS011;4876;42.656;23.292;2023-10-09T06:29:16;3.47;;;1.50;;
9675;SDS011;4876;42.656;23.292;2023-10-09T06:31:59;5.83;;;1.43;;
9675;SDS011;4876;42.656;23.292;2023-10-09T06:34:42;5.10;;;1.97;;
9675;SDS011;4876;42.656;23.292;2023-10-09T06:37:11;4.97;;;2.00;;
9675;SDS011;4876;42.656;23.292;2023-10-09T06:39:54;3.30;;;1.60;;
9675;SDS011;4876;42.656;23.292;2023-10-09T06:42:58;3.93;;;1.60;;
9675;SDS011;4876;42.656;23.292;2023-10-09T06:45:34;5.50;;;1.50;;
9675;SDS011;4876;42.656;23.292;2023-10-09T06:48:10;4.37;;;1.60;;
9675;SDS011;4876;42.656;23.292;2023-10-09T06:50:51;2.10;;;1.40;;
9675;SDS011;4876;42.656;23.292;2023-10-09T06:53:29;2.60;;;1.37;;
9675;SDS011;4876;42.656;23.292;2023-10-09T06:56:25;3.13;;;1.50;;
9675;SDS011;4876;42.656;23.292;2023-10-09T06:59:13;4.50;;;1.87;;
9675;SDS011;4876;42.656;23.292;2023-10-09T07:01:46;2.30;;;1.60;;
9675;SDS011;4876;42.656;23.292;2023-10-09T07:04:33;4.77;;;1.80;;
9675;SDS011;4876;42.656;23.292;2023-10-09T07:07:11;1.80;;;1.30;;
9675;SDS011;4876;42.656;23.292;2023-10-09T07:09:41;3.67;;;1.50;;
9675;SDS011;4876;42.656;23.292;2023-10-09T07:12:18;5.60;;;1.63;;
9675;SDS011;4876;42.656;23.292;2023-10-09T07:14:54;2.47;;;1.63;;
9675;SDS011;4876;42.656;23.292;2023-10-09T07:17:26;1.90;;;1.40;;
9675;SDS011;4876;42.656;23.292;2023-10-09T07:20:10;3.47;;;1.20;;
9675;SDS011;4876;42.656;23.292;2023-10-09T07:22:40;1.83;;;1.33;;
9675;SDS011;4876;42.656;23.292;2023-10-09T07:25:22;7.30;;;1.53;;
9675;SDS011;4876;42.656;23.292;2023-10-09T07:28:21;1.57;;;1.20;;
9675;SDS011;4876;42.656;23.292;2023-10-09T07:31:08;2.70;;;1.20;;
9675;SDS011;4876;42.656;23.292;2023-10-09T07:33:49;2.37;;;1.60;;
9675;SDS011;4876;42.656;23.292;2023-10-09T07:36:22;1.90;;;1.40;;
9675;SDS011;4876;42.656;23.292;2023-10-09T07:39:03;1.27;;;1.00;;
9675;SDS011;4876;42.656;23.292;2023-10-09T07:41:39;2.13;;;1.37;;
9675;SDS011;4876;42.656;23.292;2023-10-09T07:44:32;5.57;;;1.40;;
9675;SDS011;4876;42.656;23.292;2023-10-09T07:47:06;1.37;;;1.20;;
9675;SDS011;4876;42.656;23.292;2023-10-09T07:49:50;9.73;;;1.63;;
9675;SDS011;4876;42.656;23.292;2023-10-09T07:52:24;2.93;;;1.40;;
9675;SDS011;4876;42.656;23.292;2023-10-09T07:54:52;2.70;;;1.60;;
9675;SDS011;4876;42.656;23.292;2023-10-09T07:57:26;2.07;;;1.40;;
9675;SDS011;4876;42.656;23.292;2023-10-09T08:00:06;1.93;;;1.50;;
9675;SDS011;4876;42.656;23.292;2023-10-09T08:03:00;1.30;;;1.20;;
9675;SDS011;4876;42.656;23.292;2023-10-09T08:05:35;1.90;;;1.03;;
9675;SDS011;4876;42.656;23.292;2023-10-09T08:08:09;1.40;;;1.30;;
9675;SDS011;4876;42.656;23.292;2023-10-09T08:10:59;5.17;;;1.60;;
9675;SDS011;4876;42.656;23.292;2023-10-09T08:13:43;2.37;;;1.30;;
9675;SDS011;4876;42.656;23.292;2023-10-09T08:16:23;1.83;;;1.30;;
9675;SDS011;4876;42.656;23.292;2023-10-09T08:19:01;2.87;;;1.40;;
9675;SDS011;4876;42.656;23.292;2023-10-09T08:21:45;4.13;;;1.43;;
9675;SDS011;4876;42.656;23.292;2023-10-09T08:24:42;2.90;;;1.67;;
9675;SDS011;4876;42.656;23.292;2023-10-09T08:27:14;3.30;;;1.43;;
9675;SDS011;4876;42.656;23.292;2023-10-09T08:30:12;2.90;;;1.40;;
9675;SDS011;4876;42.656;23.292;2023-10-09T08:32:54;1.50;;;1.20;;
9675;SDS011;4876;42.656;23.292;2023-10-09T08:35:28;4.80;;;1.60;;
9675;SDS011;4876;42.656;23.292;2023-10-09T08:37:59;4.27;;;1.23;;
9675;SDS011;4876;42.656;23.292;2023-10-09T08:40:33;2.37;;;1.30;;
9675;SDS011;4876;42.656;23.292;2023-10-09T08:43:05;1.63;;;1.00;;
9675;SDS011;4876;42.656;23.292;2023-10-09T08:45:36;2.03;;;1.27;;
9675;SDS011;4876;42.656;23.292;2023-10-09T08:48:07;2.43;;;1.20;;
9675;SDS011;4876;42.656;23.292;2023-10-09T08:50:40;6.00;;;1.50;;
9675;SDS011;4876;42.656;23.292;2023-10-09T08:53:08;2.33;;;1.60;;
9675;SDS011;4876;42.656;23.292;2023-10-09T08:55:36;2.00;;;1.43;;
9675;SDS011;4876;42.656;23.292;2023-10-09T08:58:05;2.83;;;1.17;;
9675;SDS011;4876;42.656;23.292;2023-10-09T09:00:45;4.90;;;1.53;;
9675;SDS011;4876;42.656;23.292;2023-10-09T09:03:15;5.27;;;1.90;;
9675;SDS011;4876;42.656;23.292;2023-10-09T09:05:44;2.50;;;1.50;;
9675;SDS011;4876;42.656;23.292;2023-10-09T09:08:23;1.93;;;1.10;;
9675;SDS011;4876;42.656;23.292;2023-10-09T09:10:56;3.10;;;1.30;;
9675;SDS011;4876;42.656;23.292;2023-10-09T09:13:30;2.97;;;1.20;;
9675;SDS011;4876;42.656;23.292;2023-10-09T09:15:59;2.80;;;1.27;;
9675;SDS011;4876;42.656;23.292;2023-10-09T09:18:29;1.60;;;1.10;;
9675;SDS011;4876;42.656;23.292;2023-10-09T09:21:05;4.80;;;1.40;;
9675;SDS011;4876;42.656;23.292;2023-10-09T09:23:53;1.33;;;1.20;;
9675;SDS011;4876;42.656;23.292;2023-10-09T09:26:32;1.47;;;1.30;;
9675;SDS011;4876;42.656;23.292;2023-10-09T09:29:02;3.53;;;1.37;;
9675;SDS011;4876;42.656;23.292;2023-10-09T09:31:33;2.90;;;1.80;;
9675;SDS011;4876;42.656;23.292;2023-10-09T09:34:06;1.50;;;1.27;;
9675;SDS011;4876;42.656;23.292;2023-10-09T09:36:52;6.03;;;1.57;;
9675;SDS011;4876;42.656;23.292;2023-10-09T09:39:21;1.50;;;1.30;;
9675;SDS011;4876;42.656;23.292;2023-10-09T09:41:54;3.50;;;1.67;;
9675;SDS011;4876;42.656;23.292;2023-10-09T09:44:22;6.03;;;1.70;;
9675;SDS011;4876;42.656;23.292;2023-10-09T09:46:51;3.77;;;1.27;;
9675;SDS011;4876;42.656;23.292;2023-10-09T09:49:21;1.77;;;1.20;;
9675;SDS011;4876;42.656;23.292;2023-10-09T09:51:49;2.33;;;1.50;;
9675;SDS011;4876;42.656;23.292;2023-10-09T09:54:16;3.30;;;1.40;;
9675;SDS011;4876;42.656;23.292;2023-10-09T09:56:47;1.73;;;1.40;;
9675;SDS011;4876;42.656;23.292;2023-10-09T09:59:17;1.93;;;1.40;;
9675;SDS011;4876;42.656;23.292;2023-10-09T10:01:52;1.33;;;1.20;;
9675;SDS011;4876;42.656;23.292;2023-10-09T10:04:25;2.67;;;1.40;;
9675;SDS011;4876;42.656;23.292;2023-10-09T10:07:00;3.20;;;1.70;;
9675;SDS011;4876;42.656;23.292;2023-10-09T10:09:35;5.30;;;1.70;;
9675;SDS011;4876;42.656;23.292;2023-10-09T10:12:06;3.27;;;1.60;;
9675;SDS011;4876;42.656;23.292;2023-10-09T10:14:51;2.67;;;1.73;;
9675;SDS011;4876;42.656;23.292;2023-10-09T10:17:19;4.03;;;1.80;;
9675;SDS011;4876;42.656;23.292;2023-10-09T10:20:01;1.60;;;1.10;;
9675;SDS011;4876;42.656;23.292;2023-10-09T10:22:50;5.93;;;1.50;;
9675;SDS011;4876;42.656;23.292;2023-10-09T10:25:32;3.93;;;1.67;;
9675;SDS011;4876;42.656;23.292;2023-10-09T10:28:16;2.23;;;1.60;;
9675;SDS011;4876;42.656;23.292;2023-10-09T10:31:01;6.03;;;2.03;;
9675;SDS011;4876;42.656;23.292;2023-10-09T10:33:34;3.80;;;1.50;;
9675;SDS011;4876;42.656;23.292;2023-10-09T10:36:33;2.40;;;1.57;;
9675;SDS011;4876;42.656;23.292;2023-10-09T10:39:01;7.60;;;2.00;;
9675;SDS011;4876;42.656;23.292;2023-10-09T10:41:33;1.93;;;1.50;;
9675;SDS011;4876;42.656;23.292;2023-10-09T10:44:15;1.53;;;1.43;;
9675;SDS011;4876;42.656;23.292;2023-10-09T10:47:07;1.50;;;1.20;;
9675;SDS011;4876;42.656;23.292;2023-10-09T10:49:47;1.80;;;1.33;;
9675;SDS011;4876;42.656;23.292;2023-10-09T10:52:23;6.13;;;1.60;;
9675;SDS011;4876;42.656;23.292;2023-10-09T10:55:07;4.30;;;1.43;;
9675;SDS011;4876;42.656;23.292;2023-10-09T10:58:14;3.20;;;1.73;;
9675;SDS011;4876;42.656;23.292;2023-10-09T11:00:51;5.77;;;1.27;;
9675;SDS011;4876;42.656;23.292;2023-10-09T11:03:40;2.93;;;1.33;;
9675;SDS011;4876;42.656;23.292;2023-10-09T11:06:28;2.53;;;1.50;;
9675;SDS011;4876;42.656;23.292;2023-10-09T11:09:04;2.83;;;1.50;;
9675;SDS011;4876;42.656;23.292;2023-10-09T11:11:46;2.57;;;1.40;;
9675;SDS011;4876;42.656;23.292;2023-10-09T11:14:13;2.80;;;1.20;;
9675;SDS011;4876;42.656;23.292;2023-10-09T11:16:40;4.07;;;1.30;;
9675;SDS011;4876;42.656;23.292;2023-10-09T11:19:14;2.27;;;1.50;;
9675;SDS011;4876;42.656;23.292;2023-10-09T11:21:54;2.30;;;1.47;;
9675;SDS011;4876;42.656;23.292;2023-10-09T11:24:47;1.50;;;1.20;;
9675;SDS011;4876;42.656;23.292;2023-10-09T11:27:26;2.43;;;1.60;;
9675;SDS011;4876;42.656;23.292;2023-10-09T11:29:57;1.57;;;1.40;;
9675;SDS011;4876;42.656;23.292;2023-10-09T11:32:30;4.30;;;1.43;;
9675;SDS011;4876;42.656;23.292;2023-10-09T11:35:09;2.20;;;1.60;;
9675;SDS011;4876;42.656;23.292;2023-10-09T11:37:36;5.70;;;2.00;;
9675;SDS011;4876;42.656;23.292;2023-10-09T11:40:26;3.43;;;1.80;;
9675;SDS011;4876;42.656;23.292;2023-10-09T11:42:59;1.87;;;1.50;;
9675;SDS011;4876;42.656;23.292;2023-10-09T11:45:27;6.37;;;1.57;;
9675;SDS011;4876;42.656;23.292;2023-10-09T11:47:55;2.33;;;1.40;;
9675;SDS011;4876;42.656;23.292;2023-10-09T11:50:41;6.00;;;2.10;;
9675;SDS011;4876;42.656;23.292;2023-10-09T11:53:08;5.60;;;2.60;;
9675;SDS011;4876;42.656;23.292;2023-10-09T11:55:59;3.30;;;1.97;;
9675;SDS011;4876;42.656;23.292;2023-10-09T11:58:26;5.80;;;1.73;;
9675;SDS011;4876;42.656;23.292;2023-10-09T12:00:52;3.60;;;1.50;;
9675;SDS011;4876;42.656;23.292;2023-10-09T12:03:24;6.00;;;1.50;;
9675;SDS011;4876;42.656;23.292;2023-10-09T12:05:58;4.90;;;1.50;;
9675;SDS011;4876;42.656;23.292;2023-10-09T12:08:29;2.57;;;1.37;;
9675;SDS011;4876;42.656;23.292;2023-10-09T12:10:57;5.87;;;2.37;;
9675;SDS011;4876;42.656;23.292;2023-10-09T12:13:25;5.17;;;1.60;;
9675;SDS011;4876;42.656;23.292;2023-10-09T12:15:53;6.73;;;1.47;;
9675;SDS011;4876;42.656;23.292;2023-10-09T12:18:20;4.97;;;1.50;;
9675;SDS011;4876;42.656;23.292;2023-10-09T12:20:49;4.03;;;1.80;;
9675;SDS011;4876;42.656;23.292;2023-10-09T12:23:27;3.50;;;1.70;;
9675;SDS011;4876;42.656;23.292;2023-10-09T12:25:54;3.30;;;1.60;;
9675;SDS011;4876;42.656;23.292;2023-10-09T12:28:22;4.43;;;1.40;;
9675;SDS011;4876;42.656;23.292;2023-10-09T12:30:50;6.90;;;1.47;;
9675;SDS011;4876;42.656;23.292;2023-10-09T12:33:17;2.73;;;1.70;;
9675;SDS011;4876;42.656;23.292;2023-10-09T12:35:51;2.67;;;1.17;;
9675;SDS011;4876;42.656;23.292;2023-10-09T12:38:18;4.53;;;1.70;;
9675;SDS011;4876;42.656;23.292;2023-10-09T12:40:47;8.77;;;1.70;;
9675;SDS011;4876;42.656;23.292;2023-10-09T12:43:18;4.30;;;1.40;;
9675;SDS011;4876;42.656;23.292;2023-10-09T12:45:47;3.23;;;1.40;;
9675;SDS011;4876;42.656;23.292;2023-10-09T12:48:15;4.27;;;1.60;;
9675;SDS011;4876;42.656;23.292;2023-10-09T12:50:42;14.90;;;1.90;;
9675;SDS011;4876;42.656;23.292;2023-10-09T12:53:09;5.63;;;1.70;;
9675;SDS011;4876;42.656;23.292;2023-10-09T12:55:43;5.33;;;2.00;;
9675;SDS011;4876;42.656;23.292;2023-10-09T12:58:10;4.60;;;1.57;;
9675;SDS011;4876;42.656;23.292;2023-10-09T13:00:39;4.70;;;1.50;;
9675;SDS011;4876;42.656;23.292;2023-10-09T13:03:15;4.30;;;1.57;;
9675;SDS011;4876;42.656;23.292;2023-10-09T13:05:46;2.00;;;1.37;;
9675;SDS011;4876;42.656;23.292;2023-10-09T13:08:21;9.73;;;2.00;;
9675;SDS011;4876;42.656;23.292;2023-10-09T13:10:49;3.67;;;1.60;;
9675;SDS011;4876;42.656;23.292;2023-10-09T13:13:26;3.90;;;1.40;;
9675;SDS011;4876;42.656;23.292;2023-10-09T13:16:05;6.87;;;1.60;;
9675;SDS011;4876;42.656;23.292;2023-10-09T13:18:39;4.63;;;2.00;;
9675;SDS011;4876;42.656;23.292;2023-10-09T13:21:07;3.00;;;1.70;;
9675;SDS011;4876;42.656;23.292;2023-10-09T13:23:34;3.17;;;1.63;;
9675;SDS011;4876;42.656;23.292;2023-10-09T13:26:12;3.00;;;1.70;;
9675;SDS011;4876;42.656;23.292;2023-10-09T13:28:49;2.30;;;1.27;;
9675;SDS011;4876;42.656;23.292;2023-10-09T13:31:17;5.00;;;1.90;;
9675;SDS011;4876;42.656;23.292;2023-10-09T13:33:47;3.80;;;1.80;;
9675;SDS011;4876;42.656;23.292;2023-10-09T13:36:14;7.43;;;2.00;;
9675;SDS011;4876;42.656;23.292;2023-10-09T13:38:52;2.70;;;1.73;;
9675;SDS011;4876;42.656;23.292;2023-10-09T13:41:19;3.47;;;1.73;;
9675;SDS011;4876;42.656;23.292;2023-10-09T13:43:46;2.77;;;1.60;;
9675;SDS011;4876;42.656;23.292;2023-10-09T13:46:16;2.90;;;1.77;;
9675;SDS011;4876;42.656;23.292;2023-10-09T13:48:44;2.70;;;1.80;;
9675;SDS011;4876;42.656;23.292;2023-10-09T13:51:13;4.30;;;1.70;;
9675;SDS011;4876;42.656;23.292;2023-10-09T13:53:42;4.63;;;2.00;;
9675;SDS011;4876;42.656;23.292;2023-10-09T13:56:13;4.10;;;2.43;;
9675;SDS011;4876;42.656;23.292;2023-10-09T13:58:48;3.07;;;2.00;;
9675;SDS011;4876;42.656;23.292;2023-10-09T14:01:16;6.70;;;2.07;;
9675;SDS011;4876;42.656;23.292;2023-10-09T14:03:53;4.07;;;2.00;;
9675;SDS011;4876;42.656;23.292;2023-10-09T14:06:22;3.43;;;2.07;;
9675;SDS011;4876;42.656;23.292;2023-10-09T14:08:57;4.87;;;1.83;;
9675;SDS011;4876;42.656;23.292;2023-10-09T14:11:24;7.00;;;2.47;;
9675;SDS011;4876;42.656;23.292;2023-10-09T14:13:51;2.87;;;1.93;;
9675;SDS011;4876;42.656;23.292;2023-10-09T14:16:19;4.70;;;2.30;;
9675;SDS011;4876;42.656;23.292;2023-10-09T14:18:53;16.57;;;2.77;;
9675;SDS011;4876;42.656;23.292;2023-10-09T14:21:26;5.93;;;3.07;;
9675;SDS011;4876;42.656;23.292;2023-10-09T14:23:55;3.50;;;2.60;;
9675;SDS011;4876;42.656;23.292;2023-10-09T14:26:26;4.10;;;2.10;;
9675;SDS011;4876;42.656;23.292;2023-10-09T14:28:54;4.13;;;2.47;;
9675;SDS011;4876;42.656;23.292;2023-10-09T14:31:23;4.80;;;3.00;;
9675;SDS011;4876;42.656;23.292;2023-10-09T14:33:54;11.53;;;4.00;;
9675;SDS011;4876;42.656;23.292;2023-10-09T14:36:21;5.70;;;3.23;;
9675;SDS011;4876;42.656;23.292;2023-10-09T14:38:50;9.83;;;2.97;;
9675;SDS011;4876;42.656;23.292;2023-10-09T14:41:20;4.67;;;2.20;;
9675;SDS011;4876;42.656;23.292;2023-10-09T14:43:49;5.40;;;2.37;;
9675;SDS011;4876;42.656;23.292;2023-10-09T14:46:17;4.97;;;2.63;;
9675;SDS011;4876;42.656;23.292;2023-10-09T14:48:48;10.33;;;2.70;;
9675;SDS011;4876;42.656;23.292;2023-10-09T14:51:18;6.17;;;3.00;;
9675;SDS011;4876;42.656;23.292;2023-10-09T14:53:53;10.33;;;2.83;;
9675;SDS011;4876;42.656;23.292;2023-10-09T14:56:23;8.63;;;2.80;;
9675;SDS011;4876;42.656;23.292;2023-10-09T14:58:54;5.37;;;3.27;;
9675;SDS011;4876;42.656;23.292;2023-10-09T15:01:23;5.40;;;3.00;;
9675;SDS011;4876;42.656;23.292;2023-10-09T15:03:53;8.63;;;2.87;;
9675;SDS011;4876;42.656;23.292;2023-10-09T15:06:22;5.17;;;2.43;;
9675;SDS011;4876;42.656;23.292;2023-10-09T15:08:53;6.13;;;3.13;;
9675;SDS011;4876;42.656;23.292;2023-10-09T15:11:21;4.57;;;2.80;;
9675;SDS011;4876;42.656;23.292;2023-10-09T15:13:49;6.10;;;3.17;;
9675;SDS011;4876;42.656;23.292;2023-10-09T15:16:18;9.23;;;3.30;;
9675;SDS011;4876;42.656;23.292;2023-10-09T15:18:46;5.53;;;3.17;;
9675;SDS011;4876;42.656;23.292;2023-10-09T15:21:17;4.87;;;2.83;;
9675;SDS011;4876;42.656;23.292;2023-10-09T15:23:46;9.17;;;3.33;;
9675;SDS011;4876;42.656;23.292;2023-10-09T15:26:14;5.67;;;3.63;;
9675;SDS011;4876;42.656;23.292;2023-10-09T15:28:42;10.90;;;3.50;;
9675;SDS011;4876;42.656;23.292;2023-10-09T15:31:09;9.00;;;3.37;;
9675;SDS011;4876;42.656;23.292;2023-10-09T15:33:37;8.40;;;3.17;;
9675;SDS011;4876;42.656;23.292;2023-10-09T15:36:09;5.87;;;3.37;;
9675;SDS011;4876;42.656;23.292;2023-10-09T15:38:37;11.80;;;3.50;;
9675;SDS011;4876;42.656;23.292;2023-10-09T15:41:04;12.63;;;3.10;;
9675;SDS011;4876;42.656;23.292;2023-10-09T15:43:32;6.73;;;3.03;;
9675;SDS011;4876;42.656;23.292;2023-10-09T15:46:01;7.60;;;3.23;;
9675;SDS011;4876;42.656;23.292;2023-10-09T15:48:28;10.40;;;3.10;;